Time;durP1;ratioP1;P1;durP2;ratioP2;P2;SDS_P1;SDS_P2;PMS_P1;PMS_P2;Temp;Humidity;BMP_temperature;BMP_pressure;BME280_temperature;BME280_humidity;BME280_pressure;Samples;Min_cycle;Max_cycle;Signal;HPM_P1;HPM_P2
2022/04/02 00:01:34;;;;;;;8.60;6.55;;;;;;;3.04;91.54;98446.72;4992551;28;20241;-81
2022/04/02 00:04:00;;;;;;;7.10;5.82;;;;;;;2.81;90.43;98444.25;4992804;28;20191;-81
2022/04/02 00:06:27;;;;;;;7.57;5.93;;;;;;;2.56;93.98;98450.66;4992104;28;20287;-80
2022/04/02 00:08:54;;;;;;;7.55;6.30;;;;;;;2.54;95.69;98441.03;4992437;28;20207;-81
2022/04/02 00:11:22;;;;;;;9.23;6.30;;;;;;;2.67;94.08;98443.06;4992970;28;20541;-80
2022/04/02 00:13:49;;;;;;;6.28;5.68;;;;;;;2.44;94.32;98445.88;4992766;28;20537;-80
2022/04/02 00:16:16;;;;;;;6.35;5.72;;;;;;;2.38;96.72;98447.00;4992874;28;20205;-80
2022/04/02 00:18:43;;;;;;;7.97;6.25;;;;;;;2.34;96.28;98449.88;4992325;28;20212;-81
2022/04/02 00:21:10;;;;;;;7.75;5.80;;;;;;;2.42;97.76;98443.28;4992027;28;20379;-80
2022/04/02 00:23:39;;;;;;;8.50;6.07;;;;;;;2.40;97.76;98442.50;4992763;28;20199;-81
2022/04/02 00:26:06;;;;;;;8.73;5.70;;;;;;;2.59;99.14;98445.19;4993070;28;20590;-81
2022/04/02 00:28:36;;;;;;;6.70;5.90;;;;;;;2.55;99.19;98445.41;4992878;28;20207;-81
2022/04/02 00:31:03;;;;;;;6.60;5.82;;;;;;;2.60;96.15;98449.59;4992972;28;20533;-79
2022/04/02 00:33:30;;;;;;;6.28;5.68;;;;;;;2.60;96.86;98446.94;4993025;28;20618;-80
2022/04/02 00:35:56;;;;;;;7.90;6.50;;;;;;;2.46;98.86;98449.31;4992467;28;20656;-81
2022/04/02 00:38:23;;;;;;;6.20;5.60;;;;;;;2.27;99.28;98434.19;4996221;28;20207;-80
2022/04/02 00:40:50;;;;;;;11.00;5.72;;;;;;;2.24;100.00;98438.78;4996586;28;20195;-82
2022/04/02 00:43:27;;;;;;;7.18;5.63;;;;;;;2.24;100.00;98439.63;4996578;28;20207;-80
2022/04/02 00:45:57;;;;;;;6.10;5.47;;;;;;;2.22;100.00;98448.59;4996116;28;20549;-79
2022/04/02 00:48:26;;;;;;;7.82;6.10;;;;;;;2.45;100.00;98443.16;4996184;28;20279;-80
2022/04/02 00:50:56;;;;;;;6.55;5.82;;;;;;;2.60;100.00;98452.25;4996095;28;20204;-80
2022/04/02 00:53:24;;;;;;;7.70;6.00;;;;;;;2.57;100.00;98449.72;4996231;28;20618;-81
2022/04/02 00:55:51;;;;;;;7.60;6.50;;;;;;;2.23;100.00;98451.19;4996076;28;20550;-81
2022/04/02 00:58:18;;;;;;;6.88;6.20;;;;;;;2.12;100.00;98456.06;4995680;28;20224;-80
2022/04/02 01:00:45;;;;;;;6.55;5.70;;;;;;;2.23;100.00;98453.84;4996569;28;20188;-81
2022/04/02 01:03:14;;;;;;;7.55;6.30;;;;;;;2.45;100.00;98445.81;4995685;28;20253;-80
2022/04/02 01:05:41;;;;;;;7.18;6.47;;;;;;;2.40;100.00;98446.94;4996247;28;20258;-81
2022/04/02 01:08:08;;;;;;;8.30;5.63;;;;;;;2.35;100.00;98451.56;4996210;28;20185;-80
2022/04/02 01:10:36;;;;;;;8.30;5.90;;;;;;;2.47;100.00;98451.06;4995787;28;20208;-80
2022/04/02 01:13:04;;;;;;;6.72;6.05;;;;;;;2.58;100.00;98455.88;4996051;28;20207;-81
2022/04/02 01:15:30;;;;;;;7.50;5.82;;;;;;;2.60;100.00;98462.00;4995632;28;20227;-80
2022/04/02 01:17:57;;;;;;;7.95;6.30;;;;;;;2.79;100.00;98456.75;4995762;28;20780;-80
2022/04/02 01:20:28;;;;;;;7.75;6.40;;;;;;;2.69;100.00;98457.16;4995826;28;20515;-80
2022/04/02 01:22:56;;;;;;;7.03;5.75;;;;;;;2.82;100.00;98452.16;4995709;28;20655;-80
2022/04/02 01:25:23;;;;;;;6.15;5.55;;;;;;;2.92;100.00;98449.97;4995172;28;20196;-80
2022/04/02 01:27:49;;;;;;;6.15;5.32;;;;;;;2.75;100.00;98449.84;4995783;28;20189;-80
2022/04/02 01:30:16;;;;;;;7.70;6.32;;;;;;;2.69;100.00;98450.97;4995678;28;20282;-80
2022/04/02 01:32:43;;;;;;;8.00;5.90;;;;;;;2.76;100.00;98447.13;4995658;28;20199;-80
2022/04/02 01:35:11;;;;;;;6.15;5.50;;;;;;;2.73;100.00;98452.56;4994951;28;20199;-81
2022/04/02 01:37:39;;;;;;;6.40;5.80;;;;;;;2.85;100.00;98457.34;4976515;28;20185;-81
2022/04/02 01:40:08;;;;;;;6.38;5.78;;;;;;;2.70;100.00;98460.69;4991549;28;20200;-80
2022/04/02 01:42:35;;;;;;;6.30;5.70;;;;;;;2.62;100.00;98461.03;4995541;28;20196;-80
2022/04/02 01:45:01;;;;;;;9.93;6.80;;;;;;;2.64;100.00;98458.28;4995205;28;20199;-81
2022/04/02 01:47:28;;;;;;;7.78;6.18;;;;;;;2.78;100.00;98455.00;4995016;28;20204;-80
2022/04/02 01:49:55;;;;;;;7.50;6.65;;;;;;;2.51;100.00;98450.00;4994664;28;20628;-81
2022/04/02 01:52:21;;;;;;;7.60;6.88;;;;;;;2.74;100.00;98454.31;4995727;28;20191;-80
2022/04/02 01:54:49;;;;;;;7.85;6.75;;;;;;;2.76;100.00;98456.88;4995397;28;20998;-81
2022/04/02 01:57:17;;;;;;;10.38;7.32;;;;;;;2.82;100.00;98453.94;4995258;28;20649;-80
2022/04/02 01:59:47;;;;;;;8.25;7.45;;;;;;;2.85;100.00;98461.78;4995134;28;20262;-81
2022/04/02 02:02:14;;;;;;;8.45;7.60;;;;;;;2.65;100.00;98474.16;4994620;28;20238;-80
2022/04/02 02:04:41;;;;;;;8.25;7.53;;;;;;;2.78;100.00;98469.19;4982058;28;20201;-80
2022/04/02 02:07:08;;;;;;;9.07;8.18;;;;;;;3.00;100.00;98473.53;4975521;28;20210;-80
2022/04/02 02:09:34;;;;;;;7.72;6.90;;;;;;;2.74;100.00;98477.34;4976120;28;20188;-80
2022/04/02 02:12:01;;;;;;;9.65;7.00;;;;;;;2.82;100.00;98472.56;4975549;28;20191;-80
2022/04/02 02:14:29;;;;;;;8.45;7.65;;;;;;;3.13;100.00;98477.34;4975495;28;20215;-81
2022/04/02 02:16:56;;;;;;;8.60;7.50;;;;;;;3.15;100.00;98479.97;4975397;28;20184;-80
2022/04/02 02:19:23;;;;;;;7.10;6.43;;;;;;;2.90;100.00;98487.25;4974884;28;20232;-80
2022/04/02 02:21:50;;;;;;;6.95;6.35;;;;;;;3.07;100.00;98482.94;4975056;28;20647;-80
2022/04/02 02:24:17;;;;;;;7.22;6.53;;;;;;;2.87;100.00;98483.84;4974847;28;20187;-80
2022/04/02 02:26:44;;;;;;;7.55;6.85;;;;;;;2.71;100.00;98484.53;4974806;28;20256;-81
2022/04/02 02:29:11;;;;;;;7.65;6.90;;;;;;;2.63;100.00;98491.13;4975256;28;20643;-82
2022/04/02 02:31:39;;;;;;;8.15;7.35;;;;;;;2.71;100.00;98487.19;4974219;28;20192;-80
2022/04/02 02:36:50;;;;;;;9.20;6.30;;;;;;;2.67;100.00;98490.91;4994360;28;20279;-81
2022/04/02 02:39:16;;;;;;;6.70;6.10;;;;;;;2.61;100.00;98490.31;4982402;28;20239;-81
2022/04/02 02:41:43;;;;;;;6.85;6.15;;;;;;;2.62;100.00;98498.25;4974646;28;20247;-81
2022/04/02 02:44:10;;;;;;;6.38;5.72;;;;;;;2.87;100.00;98494.47;4974427;28;20206;-80
2022/04/02 02:46:36;;;;;;;6.60;5.60;;;;;;;2.77;100.00;98493.16;4975036;28;20946;-80
2022/04/02 02:49:04;;;;;;;7.28;6.57;;;;;;;2.53;100.00;98487.97;4974939;28;20210;-81
2022/04/02 02:51:31;;;;;;;6.03;5.43;;;;;;;2.54;100.00;98497.69;4974687;28;20633;-81
2022/04/02 02:53:58;;;;;;;7.20;5.95;;;;;;;2.76;100.00;98494.09;4974258;28;20263;-81
2022/04/02 02:56:24;;;;;;;8.85;5.78;;;;;;;2.82;100.00;98488.50;4974189;28;20794;-81
2022/04/02 02:58:51;;;;;;;5.93;5.35;;;;;;;3.09;98.47;98505.88;4974486;28;20849;-81
2022/04/02 03:01:18;;;;;;;5.35;4.85;;;;;;;3.22;98.60;98500.00;4975590;28;20196;-81
2022/04/02 03:03:44;;;;;;;6.10;5.50;;;;;;;3.17;98.25;98510.00;4993820;28;20185;-81
2022/04/02 03:06:13;;;;;;;6.20;5.60;;;;;;;2.83;98.91;98509.72;4994000;28;20655;-81
2022/04/02 03:08:39;;;;;;;6.13;5.35;;;;;;;2.90;99.27;98508.50;4993275;28;20255;-81
2022/04/02 03:11:06;;;;;;;5.25;4.82;;;;;;;2.92;97.61;98511.09;4993859;28;20198;-81
2022/04/02 03:13:33;;;;;;;5.63;5.13;;;;;;;2.83;98.02;98509.72;4993580;28;20205;-82
2022/04/02 03:16:02;;;;;;;7.22;5.50;;;;;;;2.73;99.26;98505.72;4993769;28;20195;-81
2022/04/02 03:18:28;;;;;;;5.35;4.85;;;;;;;2.64;99.87;98512.28;4993652;28;20211;-80
2022/04/02 03:20:55;;;;;;;5.90;5.30;;;;;;;2.64;99.99;98514.94;4993244;28;20203;-81
2022/04/02 03:23:23;;;;;;;5.53;5.03;;;;;;;2.69;100.00;98514.75;4993795;28;20188;-80
2022/04/02 03:25:49;;;;;;;6.28;5.60;;;;;;;2.74;99.21;98511.88;4993372;28;20290;-81
2022/04/02 03:28:16;;;;;;;5.50;4.90;;;;;;;2.64;99.75;98506.97;4993231;28;20195;-80
2022/04/02 03:30:44;;;;;;;4.65;4.07;;;;;;;2.55;100.00;98512.69;4993500;28;20589;-80
2022/04/02 03:33:11;;;;;;;6.28;5.68;;;;;;;2.48;100.00;98520.06;4993188;28;20243;-80
2022/04/02 03:35:37;;;;;;;5.15;4.65;;;;;;;2.67;100.00;98514.84;4993296;28;20216;-80
2022/04/02 03:38:04;;;;;;;5.38;4.88;;;;;;;2.61;100.00;98522.22;4993294;28;20549;-80
2022/04/02 03:40:32;;;;;;;7.25;5.25;;;;;;;2.60;100.00;98529.31;4993065;28;20310;-80
2022/04/02 03:42:59;;;;;;;7.38;4.75;;;;;;;2.53;100.00;98530.50;4993518;28;20195;-80
2022/04/02 03:45:25;;;;;;;7.20;5.90;;;;;;;2.54;100.00;98534.91;4992978;28;20571;-80
2022/04/02 03:47:52;;;;;;;5.25;4.70;;;;;;;2.40;100.00;98529.31;4992519;28;20211;-80
2022/04/02 03:50:19;;;;;;;5.38;4.55;;;;;;;2.21;100.00;98535.34;4992780;28;20184;-79
2022/04/02 03:52:46;;;;;;;6.60;4.93;;;;;;;2.19;100.00;98528.38;4993431;28;20303;-81
2022/04/02 03:55:12;;;;;;;5.95;5.35;;;;;;;2.44;100.00;98536.19;4993020;28;20330;-79
2022/04/02 03:57:40;;;;;;;5.15;4.40;;;;;;;2.56;100.00;98541.00;4992468;28;20211;-80
2022/04/02 04:00:09;;;;;;;6.40;4.90;;;;;;;2.30;100.00;98536.78;4992825;28;20615;-80
2022/04/02 04:02:37;;;;;;;9.00;5.53;;;;;;;2.10;100.00;98550.88;4992818;28;20322;-80
2022/04/02 04:05:06;;;;;;;5.80;5.25;;;;;;;2.15;100.00;98548.91;4993321;28;20191;-81
2022/04/02 04:07:33;;;;;;;6.28;4.95;;;;;;;2.15;100.00;98540.94;4992752;28;20254;-80
2022/04/02 04:09:59;;;;;;;6.20;5.60;;;;;;;2.23;100.00;98546.78;4993394;28;20205;-81
2022/04/02 04:12:27;;;;;;;6.03;5.43;;;;;;;2.34;100.00;98542.84;4997052;28;20224;-81
2022/04/02 04:14:55;;;;;;;6.72;5.72;;;;;;;2.17;100.00;98543.50;4999473;28;20201;-81
2022/04/02 04:17:23;;;;;;;6.28;5.68;;;;;;;2.22;100.00;98553.03;4999774;28;20301;-81
2022/04/02 04:19:50;;;;;;;6.05;5.45;;;;;;;2.36;100.00;98554.28;4999629;28;20207;-81
2022/04/02 04:22:17;;;;;;;6.40;5.80;;;;;;;2.24;100.00;98561.81;4999446;28;20203;-81
2022/04/02 04:24:44;;;;;;;5.60;5.10;;;;;;;2.23;100.00;98562.72;4998984;28;20199;-81
2022/04/02 04:27:10;;;;;;;7.40;6.43;;;;;;;2.36;100.00;98559.59;4998946;28;20191;-81
2022/04/02 04:29:37;;;;;;;8.13;5.88;;;;;;;2.48;100.00;98564.38;4998980;28;20207;-81
2022/04/02 04:32:06;;;;;;;6.22;5.63;;;;;;;2.39;100.00;98559.44;4999111;28;20188;-80
2022/04/02 04:34:33;;;;;;;6.82;6.10;;;;;;;2.39;100.00;98570.06;4999473;28;20637;-81
2022/04/02 04:37:00;;;;;;;7.13;5.38;;;;;;;2.30;100.00;98581.94;4999202;28;20555;-80
2022/04/02 04:39:26;;;;;;;6.43;5.80;;;;;;;2.44;100.00;98579.59;4998958;28;20207;-81
2022/04/02 04:41:53;;;;;;;6.55;5.85;;;;;;;2.16;100.00;98579.84;4998726;28;20201;-80
2022/04/02 04:44:19;;;;;;;6.38;5.75;;;;;;;2.24;100.00;98580.41;4999340;28;20559;-80
2022/04/02 04:46:46;;;;;;;5.97;5.47;;;;;;;2.25;100.00;98587.44;4999226;28;20258;-79
2022/04/02 04:49:15;;;;;;;6.15;5.65;;;;;;;2.22;100.00;98592.88;4999298;28;20554;-80
2022/04/02 04:51:41;;;;;;;6.60;5.90;;;;;;;2.19;100.00;98594.78;4997149;28;20362;-80
2022/04/02 04:54:08;;;;;;;6.78;6.18;;;;;;;1.96;100.00;98593.91;4998873;28;20190;-81
2022/04/02 04:56:34;;;;;;;6.40;5.80;;;;;;;1.97;100.00;98594.78;4998811;28;20203;-80
2022/04/02 04:59:01;;;;;;;6.25;5.65;;;;;;;1.90;100.00;98593.28;4999118;28;20579;-80
2022/04/02 05:01:30;;;;;;;6.75;6.15;;;;;;;2.09;100.00;98597.81;4996805;28;20227;-80
2022/04/02 05:03:56;;;;;;;9.70;6.60;;;;;;;2.22;100.00;98605.31;4998731;28;20191;-80
2022/04/02 05:06:24;;;;;;;7.65;6.38;;;;;;;2.04;100.00;98602.44;4998402;28;20197;-80
2022/04/02 05:08:51;;;;;;;7.13;6.30;;;;;;;2.15;100.00;98610.00;4998838;28;20179;-80
2022/04/02 05:11:17;;;;;;;10.68;6.47;;;;;;;2.21;100.00;98607.06;4995108;28;20286;-82
2022/04/02 05:13:45;;;;;;;6.70;6.10;;;;;;;2.38;100.00;98609.06;4998449;28;20184;-80
2022/04/02 05:16:11;;;;;;;10.95;6.03;;;;;;;2.37;100.00;98606.47;4998442;28;20191;-80
2022/04/02 05:18:39;;;;;;;7.18;6.20;;;;;;;2.27;100.00;98609.50;4998649;28;20618;-80
2022/04/02 05:21:06;;;;;;;9.68;6.40;;;;;;;2.35;100.00;98606.50;4998471;28;20195;-80
2022/04/02 05:23:34;;;;;;;7.18;6.47;;;;;;;2.23;100.00;98607.88;4995327;28;20188;-79
2022/04/02 05:26:00;;;;;;;7.32;6.65;;;;;;;2.22;100.00;98616.78;4995394;28;20208;-80
2022/04/02 05:28:27;;;;;;;7.93;6.50;;;;;;;2.18;100.00;98625.78;4995787;28;20629;-80
2022/04/02 05:30:54;;;;;;;7.40;6.70;;;;;;;2.33;100.00;98619.03;4995570;28;20270;-80
2022/04/02 05:33:21;;;;;;;7.75;6.45;;;;;;;2.25;100.00;98621.09;4995165;28;20376;-80
2022/04/02 05:35:48;;;;;;;8.55;6.13;;;;;;;1.98;100.00;98625.72;4994953;28;20195;-80
2022/04/02 05:38:14;;;;;;;6.40;5.80;;;;;;;1.90;100.00;98630.44;4994790;28;20278;-80
2022/04/02 05:40:42;;;;;;;7.93;6.60;;;;;;;1.98;100.00;98633.69;4993653;28;20226;-80
2022/04/02 05:43:09;;;;;;;7.40;6.28;;;;;;;2.09;100.00;98642.09;4981707;28;20192;-79
2022/04/02 05:45:36;;;;;;;7.60;5.95;;;;;;;2.09;100.00;98639.44;4994920;28;20192;-80
2022/04/02 05:48:02;;;;;;;7.22;6.40;;;;;;;1.94;100.00;98643.53;4982706;28;20196;-80
2022/04/02 05:50:30;;;;;;;7.78;5.50;;;;;;;2.03;100.00;98644.97;4979487;28;20199;-79
2022/04/02 05:52:57;;;;;;;7.10;6.30;;;;;;;2.12;100.00;98657.03;4990161;28;20246;-81
2022/04/02 05:55:24;;;;;;;7.22;6.50;;;;;;;2.12;100.00;98651.72;4994673;28;20275;-80
2022/04/02 05:57:52;;;;;;;5.97;5.22;;;;;;;1.91;100.00;98653.41;4995141;28;20206;-81
2022/04/02 06:00:19;;;;;;;7.00;6.15;;;;;;;1.99;100.00;98659.28;4994999;28;20230;-79
2022/04/02 06:02:46;;;;;;;6.65;5.95;;;;;;;1.91;100.00;98669.34;4979545;28;20593;-79
2022/04/02 06:05:15;;;;;;;6.32;5.68;;;;;;;1.78;100.00;98671.59;4975365;28;20231;-80
2022/04/02 06:07:43;;;;;;;12.80;6.95;;;;;;;1.78;100.00;98677.75;4979139;28;20190;-80
2022/04/02 06:10:10;;;;;;;6.78;5.43;;;;;;;1.83;100.00;98672.28;4989043;28;20271;-80
2022/04/02 06:12:38;;;;;;;7.68;5.85;;;;;;;1.91;100.00;98679.97;4975434;28;20204;-80
2022/04/02 06:15:09;;;;;;;6.03;5.43;;;;;;;1.81;100.00;98680.31;4985945;28;20555;-79
2022/04/02 06:17:36;;;;;;;11.70;5.97;;;;;;;2.05;100.00;98682.97;4995088;28;20183;-79
2022/04/02 06:20:04;;;;;;;6.22;5.40;;;;;;;2.30;100.00;98683.72;4994450;28;20318;-80
2022/04/02 06:22:31;;;;;;;6.97;5.97;;;;;;;2.43;100.00;98686.78;4993140;28;20214;-79
2022/04/02 06:24:57;;;;;;;5.88;5.30;;;;;;;2.39;100.00;98689.63;4994620;28;20194;-79
2022/04/02 06:27:24;;;;;;;7.55;5.35;;;;;;;2.46;100.00;98691.09;4994442;28;20203;-79
2022/04/02 06:29:51;;;;;;;12.43;6.40;;;;;;;2.33;100.00;98696.06;4994136;28;20187;-79
2022/04/02 06:32:21;;;;;;;6.30;5.70;;;;;;;2.33;100.00;98689.84;4994506;28;20274;-80
2022/04/02 06:34:47;;;;;;;7.30;6.20;;;;;;;2.19;100.00;98699.22;4994516;28;20206;-82
2022/04/02 06:37:14;;;;;;;7.50;6.75;;;;;;;2.24;100.00;98704.38;4994105;28;20642;-81
2022/04/02 06:39:41;;;;;;;6.40;5.28;;;;;;;2.38;100.00;98710.03;4994557;28;20315;-81
2022/04/02 06:42:08;;;;;;;5.97;5.10;;;;;;;2.49;100.00;98705.16;4991773;28;20195;-79
2022/04/02 06:44:35;;;;;;;7.32;6.60;;;;;;;2.59;100.00;98713.59;4974874;28;20188;-79
2022/04/02 06:47:01;;;;;;;6.78;5.60;;;;;;;2.38;100.00;98715.34;4975165;28;20207;-80
2022/04/02 06:49:29;;;;;;;8.18;7.25;;;;;;;2.40;100.00;98724.09;4976078;28;20572;-80
2022/04/02 06:51:57;;;;;;;6.70;6.00;;;;;;;2.34;100.00;98720.81;4987045;28;20195;-81
2022/04/02 06:54:24;;;;;;;7.88;6.03;;;;;;;2.46;100.00;98733.63;4994621;28;20211;-80
2022/04/02 06:56:50;;;;;;;8.73;5.97;;;;;;;2.56;100.00;98732.34;4994149;28;20191;-80
2022/04/02 06:59:17;;;;;;;7.45;6.22;;;;;;;2.85;100.00;98733.84;4983236;28;20188;-80
2022/04/02 07:01:44;;;;;;;6.40;5.80;;;;;;;2.79;100.00;98734.09;4993484;28;20223;-80
2022/04/02 07:04:10;;;;;;;6.85;6.15;;;;;;;2.77;100.00;98730.63;4993959;28;20355;-80
2022/04/02 07:06:44;;;;;;;11.18;6.40;;;;;;;2.56;100.00;98737.66;4992958;28;20209;-80
2022/04/02 07:09:10;;;;;;;6.40;5.35;;;;;;;2.53;100.00;98744.88;4995055;28;20202;-83
2022/04/02 07:11:37;;;;;;;7.28;5.88;;;;;;;2.43;100.00;98733.75;4993268;28;20200;-80
2022/04/02 07:14:03;;;;;;;7.10;5.43;;;;;;;2.63;100.00;98751.56;4993749;28;20584;-79
2022/04/02 07:16:30;;;;;;;6.60;5.95;;;;;;;2.82;100.00;98746.38;4992441;28;20187;-79
2022/04/02 07:18:58;;;;;;;6.50;5.85;;;;;;;2.45;100.00;98756.66;4981388;28;20279;-79
2022/04/02 07:21:27;;;;;;;6.53;5.15;;;;;;;2.52;100.00;98761.75;4989487;28;20226;-80
2022/04/02 07:23:56;;;;;;;6.55;5.80;;;;;;;2.78;100.00;98753.63;4993596;28;20188;-81
2022/04/02 07:26:23;;;;;;;8.50;6.18;;;;;;;2.86;100.00;98766.59;4992825;28;20203;-80
2022/04/02 07:28:52;;;;;;;5.72;5.13;;;;;;;2.81;100.00;98773.91;4992703;28;20192;-80
2022/04/02 07:31:19;;;;;;;5.80;5.20;;;;;;;3.02;100.00;98767.72;4988715;28;20187;-81
2022/04/02 07:33:45;;;;;;;6.97;5.05;;;;;;;3.20;100.00;98782.06;4993241;28;20655;-80
2022/04/02 07:36:20;;;;;;;5.97;4.80;;;;;;;3.22;100.00;98782.00;4993572;28;20206;-81
2022/04/02 07:38:59;;;;;;;5.65;4.80;;;;;;;3.38;100.00;98792.88;4993506;28;20190;-81
2022/04/02 07:41:37;;;;;;;6.18;5.65;;;;;;;3.22;99.45;98789.97;4993657;28;20217;-81
2022/04/02 07:44:08;;;;;;;5.75;5.25;;;;;;;3.20;100.00;98802.47;4984600;28;20192;-81
2022/04/02 07:46:36;;;;;;;5.88;5.03;;;;;;;3.18;97.92;98799.00;4973091;28;20185;-80
2022/04/02 07:49:04;;;;;;;5.05;4.55;;;;;;;3.02;100.00;98807.59;4987407;28;20212;-80
2022/04/02 07:51:31;;;;;;;6.20;4.72;;;;;;;3.09;98.49;98805.56;4994166;28;20203;-80
2022/04/02 07:54:02;;;;;;;4.85;4.32;;;;;;;3.09;100.00;98806.44;4992879;28;20222;-81
2022/04/02 07:56:32;;;;;;;5.65;4.60;;;;;;;3.06;95.28;98814.53;4992942;28;20191;-82
2022/04/02 07:59:01;;;;;;;5.50;5.00;;;;;;;2.56;97.50;98809.41;4992863;28;20194;-81
2022/04/02 08:01:28;;;;;;;6.18;5.40;;;;;;;2.77;100.00;98810.38;4993064;28;20248;-80
2022/04/02 08:03:56;;;;;;;4.68;4.20;;;;;;;2.82;100.00;98826.13;4993524;28;20210;-80
2022/04/02 08:06:23;;;;;;;7.28;5.10;;;;;;;2.71;100.00;98822.13;4993405;28;20198;-82
2022/04/02 08:08:49;;;;;;;5.20;4.75;;;;;;;2.73;100.00;98827.34;4992957;28;20556;-79
2022/04/02 08:11:18;;;;;;;8.45;5.07;;;;;;;3.04;100.00;98835.00;4996442;28;20192;-79
2022/04/02 08:13:46;;;;;;;6.10;5.32;;;;;;;3.18;100.00;98833.59;4995497;28;20270;-79
2022/04/02 08:16:13;;;;;;;5.22;4.38;;;;;;;3.46;97.89;98836.88;4997583;28;20192;-79
2022/04/02 08:18:40;;;;;;;5.40;4.90;;;;;;;3.12;99.39;98843.56;4997988;28;20638;-79
2022/04/02 08:21:08;;;;;;;5.25;4.75;;;;;;;3.29;97.69;98839.34;4996113;28;20235;-78
2022/04/02 08:23:35;;;;;;;5.78;5.15;;;;;;;3.64;99.11;98853.88;4998750;28;20242;-80
2022/04/02 08:26:18;;;;;;;5.28;4.82;;;;;;;3.18;96.34;98852.22;4997060;28;20203;-83
2022/04/02 08:29:05;;;;;;;6.43;5.05;;;;;;;3.37;96.80;98853.22;4990001;28;20193;-84
2022/04/02 08:31:46;;;;;;;5.00;4.50;;;;;;;3.26;96.32;98856.31;4991611;28;20633;-77
2022/04/02 08:34:21;;;;;;;5.95;4.40;;;;;;;3.25;94.87;98869.66;4993706;28;20277;-85
2022/04/02 08:36:52;;;;;;;6.28;4.68;;;;;;;3.29;96.56;98868.63;4985825;28;20199;-83
2022/04/02 08:39:27;;;;;;;5.30;4.75;;;;;;;3.47;94.65;98862.53;4994912;28;20284;-86
2022/04/02 08:42:20;;;;;;;4.80;4.35;;;;;;;3.07;95.25;98865.94;4975675;28;20209;-85
2022/04/02 08:45:05;;;;;;;4.80;4.28;;;;;;;3.11;96.96;98872.88;4974480;28;20188;-85
2022/04/02 08:48:04;;;;;;;4.30;3.90;;;;;;;3.21;96.65;98874.25;4972080;28;20671;-86
2022/04/02 08:50:33;;;;;;;9.25;5.10;;;;;;;3.31;96.67;98882.72;4972080;28;20206;-86
2022/04/02 08:53:17;;;;;;;5.20;4.18;;;;;;;3.31;97.52;98874.75;4993672;28;20625;-85
2022/04/02 08:55:47;;;;;;;6.75;5.18;;;;;;;3.45;96.66;98896.34;4993812;28;20242;-86
2022/04/02 08:58:24;;;;;;;4.97;4.47;;;;;;;3.15;96.75;98894.91;4995871;28;20200;-86
2022/04/02 09:01:05;;;;;;;6.82;4.53;;;;;;;3.02;98.05;98884.72;5004541;28;20275;-86
2022/04/02 09:04:16;;;;;;;7.80;4.60;;;;;;;3.30;100.00;98894.28;5004194;28;20232;-87
2022/04/02 09:07:02;;;;;;;5.82;5.28;;;;;;;3.74;96.73;98904.94;5000469;28;20279;-86
2022/04/02 09:09:48;;;;;;;4.72;4.30;;;;;;;3.81;98.97;98909.06;4993212;28;20200;-87
2022/04/02 09:12:41;;;;;;;4.70;4.18;;;;;;;3.91;96.11;98906.88;4999446;28;20191;-86
2022/04/02 09:15:10;;;;;;;4.88;4.07;;;;;;;4.06;95.01;98911.56;4999309;28;20275;-85
2022/04/02 09:17:43;;;;;;;5.15;4.60;;;;;;;4.34;94.80;98905.03;4998062;28;20222;-85
2022/04/02 09:20:20;;;;;;;7.68;4.85;;;;;;;4.88;92.15;98902.63;4997380;28;20189;-85
2022/04/02 09:23:12;;;;;;;4.55;4.15;;;;;;;4.56;83.95;98907.63;4999271;28;20278;-85
2022/04/02 09:26:19;;;;;;;5.65;4.30;;;;;;;4.25;81.44;98921.44;4999277;28;20284;-85
2022/04/02 09:28:48;;;;;;;8.25;4.05;;;;;;;3.94;86.61;98917.44;4998765;28;20219;-85
2022/04/02 09:31:47;;;;;;;5.47;4.60;;;;;;;3.99;84.60;98927.88;4998591;28;20190;-84
2022/04/02 09:35:04;;;;;;;4.30;3.90;;;;;;;3.95;82.53;98927.13;5000484;28;20191;-85
2022/04/02 09:38:15;;;;;;;5.38;4.25;;;;;;;3.66;84.27;98931.00;5001076;28;20191;-85
2022/04/02 09:40:48;;;;;;;6.95;4.75;;;;;;;3.52;87.07;98928.91;5000287;28;20217;-85
2022/04/02 09:43:25;;;;;;;4.65;4.00;;;;;;;3.62;86.59;98927.63;5001380;28;20202;-85
2022/04/02 09:46:07;;;;;;;4.75;4.35;;;;;;;3.61;86.09;98925.84;5000877;28;20281;-85
2022/04/02 09:48:48;;;;;;;10.10;4.82;;;;;;;4.03;84.74;98937.50;5001747;28;20205;-85
2022/04/02 09:51:17;;;;;;;4.70;4.25;;;;;;;3.38;81.32;98934.78;5000831;28;20183;-84
2022/04/02 09:53:59;;;;;;;4.97;4.47;;;;;;;3.62;85.09;98940.94;5001059;28;20209;-85
2022/04/02 09:56:28;;;;;;;7.90;4.70;;;;;;;3.67;84.80;98938.94;5001232;28;20275;-85
2022/04/02 09:59:06;;;;;;;6.63;4.65;;;;;;;4.08;81.17;98943.47;5001862;28;20212;-84
2022/04/02 10:01:39;;;;;;;5.00;4.38;;;;;;;3.88;80.88;98947.84;5001376;28;20241;-84
2022/04/02 10:04:23;;;;;;;5.68;4.75;;;;;;;3.97;80.35;98946.59;5001589;28;20198;-84
2022/04/02 10:06:56;;;;;;;5.18;4.40;;;;;;;4.40;77.11;98939.44;5001121;28;20627;-85
2022/04/02 10:09:31;;;;;;;7.10;4.85;;;;;;;4.67;77.66;98945.34;5002102;28;20242;-85
2022/04/02 10:12:00;;;;;;;4.43;3.78;;;;;;;4.37;76.11;98953.75;5003343;28;20620;-84
2022/04/02 10:14:28;;;;;;;5.18;3.78;;;;;;;4.52;74.84;98948.69;5003717;28;20262;-85
2022/04/02 10:16:57;;;;;;;4.53;3.88;;;;;;;4.60;72.97;98950.09;5003859;28;20234;-85
2022/04/02 10:19:28;;;;;;;6.57;4.18;;;;;;;4.77;71.68;98952.03;5005563;28;20188;-85
2022/04/02 10:21:57;;;;;;;7.63;4.65;;;;;;;4.53;71.37;98953.09;5006013;28;20233;-85
2022/04/02 10:24:26;;;;;;;4.97;4.47;;;;;;;4.87;71.49;98956.94;5007781;28;20190;-85
2022/04/02 10:26:55;;;;;;;5.20;4.55;;;;;;;4.77;71.82;98957.34;5008261;28;20204;-85
2022/04/02 10:29:43;;;;;;;4.60;4.20;;;;;;;4.87;72.77;98951.59;5006111;28;20255;-84
2022/04/02 10:32:26;;;;;;;5.45;4.30;;;;;;;4.38;74.12;98959.94;5006554;28;20184;-85
2022/04/02 10:34:56;;;;;;;8.50;4.50;;;;;;;4.82;74.14;98959.81;5008136;28;20198;-84
2022/04/02 10:37:28;;;;;;;4.35;3.80;;;;;;;4.86;73.05;98972.09;5009144;28;20189;-84
2022/04/02 10:40:02;;;;;;;4.18;3.80;;;;;;;4.94;73.26;98969.06;5008698;28;20198;-85
2022/04/02 10:42:33;;;;;;;5.38;4.63;;;;;;;5.31;69.53;98983.38;5007881;28;20298;-85
2022/04/02 10:45:00;;;;;;;4.95;4.00;;;;;;;4.30;73.66;98984.28;5008400;28;20261;-85
2022/04/02 10:47:29;;;;;;;5.20;4.70;;;;;;;4.33;74.02;98980.63;5007542;28;20201;-85
2022/04/02 10:50:02;;;;;;;6.75;5.07;;;;;;;4.51;74.31;98976.28;5006070;28;20274;-85
2022/04/02 10:52:29;;;;;;;5.70;4.30;;;;;;;4.52;74.46;98973.56;5008455;28;20637;-83
2022/04/02 10:54:57;;;;;;;6.45;4.35;;;;;;;5.31;69.76;98972.69;5006950;28;20197;-83
2022/04/02 10:57:27;;;;;;;5.78;4.60;;;;;;;5.71;69.59;98974.34;5007128;28;20207;-85
2022/04/02 11:00:00;;;;;;;4.82;4.40;;;;;;;5.82;67.15;98974.69;5008234;28;20241;-84
2022/04/02 11:02:38;;;;;;;4.70;3.72;;;;;;;5.37;68.63;98978.63;5006763;28;20228;-84
2022/04/02 11:05:06;;;;;;;5.15;4.65;;;;;;;5.04;70.24;98977.50;5005176;28;20224;-84
2022/04/02 11:07:40;;;;;;;10.25;4.35;;;;;;;4.88;70.96;98980.00;5005344;28;20235;-84
2022/04/02 11:10:15;;;;;;;5.95;4.10;;;;;;;5.01;73.90;98981.19;5004770;28;20259;-85
2022/04/02 11:12:44;;;;;;;5.90;5.10;;;;;;;5.35;72.97;98982.31;5005811;28;20193;-84
2022/04/02 11:15:15;;;;;;;5.68;3.78;;;;;;;5.54;67.88;98980.50;5005388;28;20644;-83
2022/04/02 11:17:44;;;;;;;4.82;3.97;;;;;;;5.03;69.08;98984.66;5006967;28;20258;-84
2022/04/02 11:20:15;;;;;;;6.35;4.30;;;;;;;5.53;69.47;98994.78;5005796;28;20215;-84
2022/04/02 11:23:13;;;;;;;5.18;3.95;;;;;;;5.95;64.26;99000.88;5006409;28;20219;-84
2022/04/02 11:25:46;;;;;;;4.78;4.30;;;;;;;4.57;66.16;98992.03;4987542;28;20241;-84
2022/04/02 11:28:15;;;;;;;8.05;4.85;;;;;;;4.88;67.71;98999.53;5006324;28;20657;-84
2022/04/02 11:30:43;;;;;;;4.50;3.90;;;;;;;5.17;66.53;98992.03;5006448;28;20195;-84
2022/04/02 11:33:13;;;;;;;4.78;4.38;;;;;;;4.92;67.53;98987.78;5008014;28;20241;-84
2022/04/02 11:35:41;;;;;;;7.13;4.70;;;;;;;4.80;67.31;99005.22;5006552;28;20179;-85
2022/04/02 11:38:24;;;;;;;7.40;4.32;;;;;;;4.37;70.63;99000.88;5006394;28;20205;-84
2022/04/02 11:40:56;;;;;;;5.40;4.35;;;;;;;4.34;73.95;99006.31;5006907;28;20197;-83
2022/04/02 11:43:32;;;;;;;5.30;4.40;;;;;;;4.20;77.25;99006.91;5006437;28;20189;-84
2022/04/02 11:46:00;;;;;;;5.93;4.75;;;;;;;4.18;83.29;99014.97;5007516;28;20219;-84
2022/04/02 11:48:32;;;;;;;5.72;5.15;;;;;;;4.57;85.04;99008.91;5005310;28;20213;-84
2022/04/02 11:51:12;;;;;;;6.13;4.72;;;;;;;4.99;80.56;99012.41;5005181;28;20186;-84
2022/04/02 11:53:40;;;;;;;5.82;5.00;;;;;;;5.34;78.76;99013.47;5005395;28;20226;-84